createdAt,value
2018-12-29T00:02:06.865Z,0.20
2018-12-29T00:04:34.266Z,0.30
2018-12-29T00:07:01.887Z,0.40
2018-12-29T00:09:29.456Z,0.20
2018-12-29T00:11:56.986Z,0.20
2018-12-29T00:14:25.196Z,0.30
2018-12-29T00:16:52.777Z,0.20
2018-12-29T00:19:20.122Z,0.30
2018-12-29T00:21:47.496Z,0.20
2018-12-29T00:24:14.980Z,0.20
2018-12-29T00:26:42.588Z,0.10
2018-12-29T00:29:10.496Z,0.20
2018-12-29T00:31:37.976Z,0.10
2018-12-29T00:34:05.658Z,0.10
2018-12-29T00:36:33.158Z,0.10
2018-12-29T00:39:00.996Z,0.20
2018-12-29T00:41:28.588Z,0.20
2018-12-29T00:43:56.107Z,0.30
2018-12-29T00:46:23.708Z,0.30
2018-12-29T00:48:51.548Z,0.40
2018-12-29T00:51:18.878Z,0.40
2018-12-29T00:53:46.418Z,0.50
2018-12-29T00:56:14.167Z,0.50
2018-12-29T00:58:41.728Z,0.60
2018-12-29T01:01:09.628Z,0.60
2018-12-29T01:03:37.289Z,0.60
2018-12-29T01:06:04.836Z,0.60
2018-12-29T01:08:32.488Z,0.60
2018-12-29T01:11:00.136Z,0.60
2018-12-29T01:13:27.707Z,0.60
2018-12-29T01:15:55.258Z,0.70
2018-12-29T01:18:22.820Z,0.70
2018-12-29T01:20:50.165Z,0.70
2018-12-29T01:23:17.879Z,0.70
2018-12-29T01:25:45.417Z,0.70
2018-12-29T01:28:13.837Z,0.70
2018-12-29T01:30:41.402Z,0.60
2018-12-29T01:33:08.767Z,0.70
2018-12-29T01:35:36.452Z,0.60
2018-12-29T01:38:04.188Z,0.70
2018-12-29T01:40:31.778Z,0.70
2018-12-29T01:42:59.267Z,0.70
2018-12-29T01:45:26.790Z,0.70
2018-12-29T01:47:54.367Z,0.70
2018-12-29T01:50:21.938Z,0.70
2018-12-29T01:52:49.487Z,0.60
2018-12-29T01:55:17.133Z,0.60
2018-12-29T01:57:44.598Z,0.50
2018-12-29T02:00:12.098Z,0.40
2018-12-29T02:02:39.491Z,0.40
2018-12-29T02:05:10.558Z,0.40
2018-12-29T02:07:38.068Z,0.30
2018-12-29T02:10:06.230Z,0.30
2018-12-29T02:12:33.900Z,0.20
2018-12-29T02:15:01.412Z,0.20
2018-12-29T02:17:28.930Z,0.20
2018-12-29T02:19:56.457Z,0.20
2018-12-29T02:22:23.939Z,0.30
2018-12-29T02:24:51.597Z,0.40
2018-12-29T02:27:19.018Z,0.30
2018-12-29T02:29:46.658Z,0.30
2018-12-29T02:32:13.999Z,0.40
2018-12-29T02:34:41.960Z,0.40
2018-12-29T02:37:09.440Z,0.40
2018-12-29T02:39:37.448Z,0.40
2018-12-29T02:42:04.888Z,0.40
2018-12-29T02:44:32.487Z,0.50
2018-12-29T02:46:59.928Z,0.50
2018-12-29T02:49:27.527Z,0.40
2018-12-29T02:51:55.038Z,0.50
2018-12-29T02:54:22.728Z,0.50
2018-12-29T02:56:50.258Z,0.40
2018-12-29T02:59:17.978Z,0.40
2018-12-29T03:01:45.602Z,0.40
2018-12-29T03:04:12.990Z,0.40
2018-12-29T03:07:00.277Z,0.40
2018-12-29T03:09:28.458Z,0.40
2018-12-29T03:11:55.767Z,0.50
2018-12-29T03:14:23.194Z,0.40
2018-12-29T03:16:50.548Z,0.40
2018-12-29T03:19:17.777Z,0.40
2018-12-29T03:21:45.430Z,0.20
2018-12-29T03:24:12.897Z,0.30
2018-12-29T03:26:40.438Z,0.30
2018-12-29T03:29:08.198Z,0.30
2018-12-29T03:31:35.336Z,0.20
2018-12-29T03:34:02.783Z,0.20
2018-12-29T03:36:30.228Z,0.20
2018-12-29T03:38:57.748Z,0.30
2018-12-29T03:41:25.669Z,0.10
2018-12-29T03:43:53.468Z,0.10
2018-12-29T03:46:21.534Z,0.10
2018-12-29T03:48:49.247Z,0.10
2018-12-29T03:51:16.923Z,0.10
2018-12-29T03:53:44.999Z,0.00
2018-12-29T03:56:12.795Z,0.10
2018-12-29T03:58:40.149Z,0.10
2018-12-29T04:01:07.779Z,0.10
2018-12-29T04:03:35.213Z,0.10
2018-12-29T04:06:03.017Z,0.10
2018-12-29T04:08:30.540Z,0.20
2018-12-29T04:10:57.873Z,0.10
2018-12-29T04:13:25.442Z,0.20
2018-12-29T04:15:57.925Z,0.20
2018-12-29T04:18:22.499Z,0.30
2018-12-29T04:20:50.109Z,0.30
2018-12-29T04:23:17.697Z,0.30
2018-12-29T04:25:45.189Z,0.40
2018-12-29T04:28:12.688Z,0.40
2018-12-29T04:30:39.910Z,0.40
2018-12-29T04:33:07.258Z,0.40
2018-12-29T04:35:34.809Z,0.40
2018-12-29T04:38:02.497Z,0.50
2018-12-29T04:40:29.790Z,0.50
2018-12-29T04:42:57.669Z,0.50
2018-12-29T04:45:25.179Z,0.50
2018-12-29T04:47:52.681Z,0.50
2018-12-29T04:50:20.188Z,0.50
2018-12-29T04:52:47.922Z,0.50
2018-12-29T04:55:15.569Z,0.50
2018-12-29T04:57:43.278Z,0.50
2018-12-29T05:00:11.127Z,0.40
2018-12-29T05:02:38.617Z,0.40
2018-12-29T05:05:06.067Z,0.30
2018-12-29T05:07:33.828Z,0.30
2018-12-29T05:10:01.369Z,0.20
2018-12-29T05:12:28.898Z,0.10
2018-12-29T05:14:56.369Z,0.00
2018-12-29T05:17:23.888Z,0.00
2018-12-29T05:19:51.379Z,0.00
2018-12-29T05:22:18.838Z,0.10
2018-12-29T05:24:46.198Z,-0.10
2018-12-29T05:27:13.925Z,-0.10
2018-12-29T05:29:41.549Z,-0.10
2018-12-29T05:32:09.318Z,-0.20
2018-12-29T05:34:36.808Z,-0.20
2018-12-29T05:37:04.250Z,-0.20
2018-12-29T05:39:31.742Z,-0.30
2018-12-29T05:41:59.208Z,-0.30
2018-12-29T05:44:26.618Z,-0.30
2018-12-29T05:46:53.868Z,-0.30
2018-12-29T05:49:21.939Z,-0.30
2018-12-29T05:51:49.259Z,-0.30
2018-12-29T05:54:16.750Z,-0.20
2018-12-29T05:56:44.239Z,-0.20
2018-12-29T05:59:11.789Z,-0.20
2018-12-29T06:01:39.399Z,-0.20
2018-12-29T06:04:06.778Z,-0.20
2018-12-29T06:06:34.471Z,-0.20
2018-12-29T06:09:03.930Z,-0.20
2018-12-29T06:11:32.078Z,-0.20
2018-12-29T06:13:59.599Z,-0.20
2018-12-29T06:16:27.782Z,-0.10
2018-12-29T06:18:55.598Z,-0.10
2018-12-29T06:21:22.968Z,-0.20
2018-12-29T06:23:51.192Z,-0.20
2018-12-29T06:26:18.647Z,-0.20
2018-12-29T06:28:46.177Z,-0.30
2018-12-29T06:31:13.349Z,-0.20
2018-12-29T06:33:40.908Z,-0.20
2018-12-29T06:36:08.460Z,-0.20
2018-12-29T06:38:36.009Z,-0.20
2018-12-29T06:41:03.927Z,-0.20
2018-12-29T06:43:31.498Z,-0.10
2018-12-29T06:45:59.068Z,-0.10
2018-12-29T06:48:26.718Z,0.00
2018-12-29T06:50:54.648Z,0.00
2018-12-29T06:53:22.249Z,0.10
2018-12-29T06:55:49.888Z,0.10
2018-12-29T06:58:17.488Z,0.20
2018-12-29T07:00:44.918Z,0.30
2018-12-29T07:03:12.521Z,0.30
2018-12-29T07:05:40.407Z,0.20
2018-12-29T07:08:07.782Z,0.30
2018-12-29T07:10:35.230Z,0.30
2018-12-29T07:13:02.670Z,0.30
2018-12-29T07:15:30.411Z,0.40
2018-12-29T07:17:57.948Z,0.40
2018-12-29T07:20:25.318Z,0.40
2018-12-29T07:22:52.857Z,0.40
2018-12-29T07:25:20.309Z,0.50
2018-12-29T07:27:47.988Z,0.40
2018-12-29T07:30:15.877Z,0.40
2018-12-29T07:32:43.649Z,0.50
2018-12-29T07:35:11.209Z,0.40
2018-12-29T07:37:38.803Z,0.50
2018-12-29T07:40:06.329Z,0.60
2018-12-29T07:42:34.038Z,0.60
2018-12-29T07:45:01.540Z,0.60
2018-12-29T07:47:28.977Z,0.60
2018-12-29T07:49:56.518Z,0.70
2018-12-29T07:52:24.017Z,0.70
2018-12-29T07:54:51.669Z,0.70
2018-12-29T07:57:19.614Z,0.80
2018-12-29T07:59:47.298Z,0.80
2018-12-29T08:02:14.808Z,0.80
2018-12-29T08:04:42.588Z,0.80
2018-12-29T08:07:10.120Z,0.80
2018-12-29T08:09:37.787Z,0.80
2018-12-29T08:12:05.477Z,0.80
2018-12-29T08:14:33.289Z,0.90
2018-12-29T08:17:00.630Z,0.90
2018-12-29T08:19:28.187Z,0.90
2018-12-29T08:21:56.908Z,0.90
2018-12-29T08:24:24.348Z,0.90
2018-12-29T08:26:51.719Z,0.90
2018-12-29T08:29:19.193Z,1.00
2018-12-29T08:31:46.671Z,1.00
2018-12-29T08:34:14.585Z,1.10
2018-12-29T08:36:42.191Z,1.10
2018-12-29T08:39:09.878Z,1.10
2018-12-29T08:41:38.991Z,1.10
2018-12-29T08:44:06.812Z,1.20
2018-12-29T08:46:34.768Z,1.30
2018-12-29T08:49:03.227Z,1.30
2018-12-29T08:51:31.548Z,1.30
2018-12-29T08:53:59.758Z,1.30
2018-12-29T08:56:27.628Z,1.30
2018-12-29T08:58:55.488Z,1.20
2018-12-29T09:01:23.169Z,1.20
2018-12-29T09:03:51.389Z,1.20
2018-12-29T09:06:19.688Z,1.20
2018-12-29T09:08:47.418Z,1.20
2018-12-29T09:11:15.528Z,1.20
2018-12-29T09:13:43.581Z,1.10
2018-12-29T09:16:11.757Z,1.10
2018-12-29T09:18:39.967Z,1.10
2018-12-29T09:21:08.547Z,1.10
2018-12-29T09:23:36.428Z,1.00
2018-12-29T09:26:04.766Z,1.00
2018-12-29T09:28:33.178Z,1.00
2018-12-29T09:31:00.639Z,0.90
2018-12-29T09:33:28.469Z,0.90
2018-12-29T09:35:56.391Z,0.90
2018-12-29T09:38:24.319Z,0.80
2018-12-29T09:40:52.217Z,0.80
2018-12-29T09:43:20.399Z,0.70
2018-12-29T09:45:48.388Z,0.70
2018-12-29T09:48:16.027Z,0.80
2018-12-29T09:50:43.766Z,0.80
2018-12-29T09:53:11.777Z,0.80
2018-12-29T09:55:39.530Z,0.80
2018-12-29T09:58:07.537Z,0.80
2018-12-29T10:00:35.447Z,0.70
2018-12-29T10:03:03.737Z,0.60
2018-12-29T10:05:31.711Z,0.70
2018-12-29T10:07:59.617Z,0.70
2018-12-29T10:10:27.687Z,0.60
2018-12-29T10:12:55.830Z,0.60
2018-12-29T10:15:23.857Z,0.70
2018-12-29T10:17:51.500Z,0.70
2018-12-29T10:20:18.957Z,0.60
2018-12-29T10:22:46.850Z,0.60
2018-12-29T10:25:14.518Z,0.70
2018-12-29T10:27:41.830Z,0.70
2018-12-29T10:30:09.587Z,0.80
2018-12-29T10:32:36.928Z,0.80
2018-12-29T10:35:04.566Z,0.90
2018-12-29T10:37:31.908Z,1.00
2018-12-29T10:39:59.558Z,1.10
2018-12-29T10:42:26.997Z,1.20
2018-12-29T10:44:54.787Z,1.20
2018-12-29T10:47:22.845Z,1.20
2018-12-29T10:49:50.318Z,1.30
2018-12-29T10:52:17.617Z,1.30
2018-12-29T10:54:44.996Z,1.40
2018-12-29T10:57:12.637Z,1.40
2018-12-29T10:59:39.896Z,1.40
2018-12-29T11:02:07.486Z,1.40
2018-12-29T11:04:34.948Z,1.30
2018-12-29T11:07:02.487Z,1.30
2018-12-29T11:09:29.976Z,1.30
2018-12-29T11:11:58.178Z,1.20
2018-12-29T11:14:25.588Z,1.20
2018-12-29T11:16:53.885Z,1.20
2018-12-29T11:19:21.318Z,1.10
2018-12-29T11:21:48.998Z,1.10
2018-12-29T11:24:16.379Z,1.20
2018-12-29T11:26:44.036Z,1.20
2018-12-29T11:29:11.541Z,1.20
2018-12-29T11:31:39.110Z,1.20
2018-12-29T11:34:06.717Z,1.10
2018-12-29T11:36:34.320Z,1.20
2018-12-29T11:39:01.957Z,1.20
2018-12-29T11:41:30.464Z,1.20
2018-12-29T11:43:58.218Z,1.20
2018-12-29T11:46:25.689Z,1.30
2018-12-29T11:48:53.388Z,1.30
2018-12-29T11:51:21.150Z,1.20
2018-12-29T11:53:49.070Z,1.20
2018-12-29T11:56:16.698Z,1.10
2018-12-29T11:58:44.227Z,1.10
2018-12-29T12:01:11.887Z,1.00
2018-12-29T12:03:39.479Z,0.90
2018-12-29T12:06:06.976Z,1.00
2018-12-29T12:08:34.657Z,0.90
2018-12-29T12:11:02.307Z,0.80
2018-12-29T12:13:29.878Z,0.80
2018-12-29T12:15:57.638Z,0.80
2018-12-29T12:18:25.288Z,0.80
2018-12-29T12:20:52.720Z,0.80
2018-12-29T12:23:20.557Z,0.90
2018-12-29T12:25:48.148Z,1.00
2018-12-29T12:28:15.636Z,1.00
2018-12-29T12:30:43.258Z,1.10
2018-12-29T12:33:11.246Z,0.90
2018-12-29T12:35:39.266Z,0.80
2018-12-29T12:38:07.314Z,0.80
2018-12-29T12:40:35.046Z,0.80
2018-12-29T12:43:02.629Z,0.70
2018-12-29T12:45:30.300Z,0.80
2018-12-29T12:48:04.903Z,0.80
2018-12-29T12:50:27.241Z,0.70
2018-12-29T12:52:55.039Z,0.70
2018-12-29T12:55:22.750Z,0.60
2018-12-29T12:57:50.137Z,0.60
2018-12-29T13:00:18.017Z,0.60
2018-12-29T13:02:45.730Z,0.60
2018-12-29T13:05:13.370Z,0.60
2018-12-29T13:07:40.888Z,0.60
2018-12-29T13:10:08.719Z,0.60
2018-12-29T13:12:36.249Z,0.70
2018-12-29T13:15:04.908Z,0.60
2018-12-29T13:17:32.407Z,0.60
2018-12-29T13:20:00.422Z,0.60
2018-12-29T13:22:27.890Z,0.60
2018-12-29T13:24:55.749Z,0.60
2018-12-29T13:27:23.476Z,0.70
2018-12-29T13:29:51.036Z,0.60
2018-12-29T13:32:18.556Z,0.60
2018-12-29T13:34:46.549Z,0.60
2018-12-29T13:37:14.106Z,0.60
2018-12-29T13:39:41.729Z,0.60
2018-12-29T13:42:09.508Z,0.60
2018-12-29T13:44:37.107Z,0.60
2018-12-29T13:47:04.857Z,0.60
2018-12-29T13:49:32.686Z,0.60
2018-12-29T13:51:59.909Z,0.60
2018-12-29T13:54:27.977Z,0.70
2018-12-29T13:56:55.697Z,0.70
2018-12-29T13:59:23.386Z,0.70
2018-12-29T14:01:51.335Z,0.80
2018-12-29T14:04:19.896Z,0.80
2018-12-29T14:06:47.446Z,0.80
2018-12-29T14:09:15.127Z,0.80
2018-12-29T14:11:42.916Z,0.80
2018-12-29T14:14:10.736Z,0.80
2018-12-29T14:16:39.126Z,0.80
2018-12-29T14:19:06.739Z,0.80
2018-12-29T14:21:34.568Z,0.80
2018-12-29T14:24:02.018Z,0.80
2018-12-29T14:26:29.524Z,0.80
2018-12-29T14:28:57.241Z,0.80
2018-12-29T14:31:24.938Z,0.80
2018-12-29T14:33:52.455Z,0.70
2018-12-29T14:36:19.967Z,0.80
2018-12-29T14:38:47.627Z,0.70
2018-12-29T14:41:15.226Z,0.70
2018-12-29T14:43:42.806Z,0.70
2018-12-29T14:46:10.706Z,0.70
2018-12-29T14:48:38.234Z,0.70
2018-12-29T14:51:05.837Z,0.70
2018-12-29T14:53:33.255Z,0.70
2018-12-29T14:56:01.837Z,0.70
2018-12-29T14:58:29.376Z,0.70
2018-12-29T15:00:57.265Z,0.70
2018-12-29T15:03:24.838Z,0.70
2018-12-29T15:05:52.397Z,0.70
2018-12-29T15:08:20.260Z,0.70
2018-12-29T15:10:48.217Z,0.70
2018-12-29T15:13:16.038Z,0.70
2018-12-29T15:15:43.776Z,0.70
2018-12-29T15:18:11.587Z,0.70
2018-12-29T15:20:39.649Z,0.70
2018-12-29T15:23:07.740Z,0.70
2018-12-29T15:25:35.247Z,0.70
2018-12-29T15:28:03.216Z,0.70
2018-12-29T15:30:31.176Z,0.60
2018-12-29T15:32:58.956Z,0.60
2018-12-29T15:35:26.498Z,0.60
2018-12-29T15:37:54.423Z,0.60
2018-12-29T15:40:21.968Z,0.70
2018-12-29T15:42:50.338Z,0.70
2018-12-29T15:45:18.258Z,0.70
2018-12-29T15:47:46.535Z,0.70
2018-12-29T15:50:13.996Z,0.70
2018-12-29T15:52:42.097Z,0.70
2018-12-29T15:55:09.631Z,0.80
2018-12-29T15:57:37.096Z,0.80
2018-12-29T16:00:04.878Z,0.80
2018-12-29T16:02:32.858Z,0.80
2018-12-29T16:05:00.572Z,0.70
2018-12-29T16:07:28.298Z,0.70
2018-12-29T16:09:55.889Z,0.70
2018-12-29T16:12:23.466Z,0.70
2018-12-29T16:14:51.288Z,0.70
2018-12-29T16:17:18.716Z,0.70
2018-12-29T16:19:46.796Z,0.70
2018-12-29T16:22:14.503Z,0.80
2018-12-29T16:24:42.417Z,0.80
2018-12-29T16:27:09.685Z,0.80
2018-12-29T16:29:37.556Z,0.80
2018-12-29T16:32:05.112Z,0.80
2018-12-29T16:34:32.766Z,0.80
2018-12-29T16:37:00.419Z,0.80
2018-12-29T16:39:29.068Z,0.80
2018-12-29T16:41:56.808Z,0.80
2018-12-29T16:44:24.687Z,0.80
2018-12-29T16:46:52.746Z,0.80
2018-12-29T16:49:20.467Z,0.90
2018-12-29T16:51:48.017Z,0.90
2018-12-29T16:54:15.668Z,0.90
2018-12-29T16:56:43.032Z,0.90
2018-12-29T16:59:10.576Z,0.90
2018-12-29T17:01:38.627Z,0.90
2018-12-29T17:04:06.596Z,0.90
2018-12-29T17:06:34.596Z,1.00
2018-12-29T17:09:02.428Z,1.00
2018-12-29T17:11:30.298Z,1.10
2018-12-29T17:13:57.746Z,1.10
2018-12-29T17:16:25.328Z,1.10
2018-12-29T17:18:52.959Z,1.10
2018-12-29T17:21:20.506Z,1.10
2018-12-29T17:23:48.667Z,1.00
2018-12-29T17:26:16.401Z,1.00
2018-12-29T17:28:43.877Z,1.00
2018-12-29T17:31:12.027Z,1.00
2018-12-29T17:33:39.577Z,1.00
2018-12-29T17:36:07.177Z,1.00
2018-12-29T17:38:34.886Z,1.00
2018-12-29T17:41:02.627Z,1.00
2018-12-29T17:43:30.236Z,1.00
2018-12-29T17:45:58.316Z,1.00
2018-12-29T17:48:25.627Z,1.00
2018-12-29T17:50:53.277Z,1.00
2018-12-29T17:53:21.339Z,1.00
2018-12-29T17:55:48.646Z,1.00
2018-12-29T17:58:16.137Z,1.00
2018-12-29T18:00:43.757Z,1.00
2018-12-29T18:03:13.559Z,1.00
2018-12-29T18:05:41.267Z,0.90
2018-12-29T18:08:08.936Z,0.90
2018-12-29T18:10:36.528Z,0.90
2018-12-29T18:13:04.301Z,0.90
2018-12-29T18:15:31.567Z,0.90
2018-12-29T18:17:59.466Z,0.80
2018-12-29T18:20:27.088Z,0.80
2018-12-29T18:22:54.736Z,0.80
2018-12-29T18:25:22.174Z,0.80
2018-12-29T18:27:49.699Z,0.90
2018-12-29T18:30:17.098Z,0.90
2018-12-29T18:32:44.689Z,0.90
2018-12-29T18:35:12.297Z,0.90
2018-12-29T18:37:40.126Z,0.90
2018-12-29T18:40:07.847Z,0.90
2018-12-29T18:42:35.367Z,0.90
2018-12-29T18:45:02.769Z,1.00
2018-12-29T18:47:30.487Z,1.00
2018-12-29T18:49:57.819Z,1.00
2018-12-29T18:52:25.681Z,1.00
2018-12-29T18:54:53.213Z,1.00
2018-12-29T18:57:20.745Z,1.00
2018-12-29T18:59:48.107Z,1.00
2018-12-29T19:02:15.455Z,1.00
2018-12-29T19:04:43.628Z,1.10
2018-12-29T19:07:11.397Z,1.10
2018-12-29T19:09:38.951Z,1.10
2018-12-29T19:12:11.169Z,1.10
2018-12-29T19:14:36.226Z,1.10
2018-12-29T19:17:03.555Z,1.20
2018-12-29T19:19:31.536Z,1.10
2018-12-29T19:21:59.017Z,1.10
2018-12-29T19:24:26.808Z,1.10
2018-12-29T19:26:54.445Z,1.10
2018-12-29T19:29:22.086Z,1.00
2018-12-29T19:31:49.526Z,1.00
2018-12-29T19:34:17.616Z,1.00
2018-12-29T19:36:44.987Z,1.00
2018-12-29T19:39:12.875Z,0.90
2018-12-29T19:41:46.585Z,0.90
2018-12-29T19:44:09.768Z,0.90
2018-12-29T19:46:37.715Z,0.90
2018-12-29T19:49:05.527Z,0.90
2018-12-29T19:51:33.075Z,0.90
2018-12-29T19:54:00.577Z,0.90
2018-12-29T19:56:28.056Z,0.90
2018-12-29T19:58:55.913Z,0.90
2018-12-29T20:01:23.367Z,0.90
2018-12-29T20:03:51.119Z,0.90
2018-12-29T20:06:18.658Z,0.90
2018-12-29T20:08:46.351Z,0.90
2018-12-29T20:11:13.875Z,0.90
2018-12-29T20:13:41.719Z,0.90
2018-12-29T20:16:09.855Z,0.90
2018-12-29T20:18:37.855Z,0.90
2018-12-29T20:21:06.109Z,0.90
2018-12-29T20:23:33.711Z,0.90
2018-12-29T20:26:01.185Z,0.90
2018-12-29T20:28:28.978Z,0.90
2018-12-29T20:30:56.635Z,0.90
2018-12-29T20:33:24.337Z,1.00
2018-12-29T20:35:51.623Z,1.00
2018-12-29T20:38:19.136Z,1.00
2018-12-29T20:40:46.805Z,1.00
2018-12-29T20:43:14.580Z,1.00
2018-12-29T20:45:42.782Z,1.00
2018-12-29T20:48:11.087Z,1.00
2018-12-29T20:50:38.595Z,1.00
2018-12-29T20:53:06.158Z,1.10
2018-12-29T20:55:33.625Z,1.10
2018-12-29T20:58:01.145Z,1.10
2018-12-29T21:00:28.886Z,1.10
2018-12-29T21:02:56.506Z,1.10
2018-12-29T21:05:25.672Z,1.10
2018-12-29T21:07:53.466Z,1.20
2018-12-29T21:10:21.255Z,1.20
2018-12-29T21:12:49.356Z,1.20
2018-12-29T21:15:16.871Z,1.20
2018-12-29T21:17:44.955Z,1.20
2018-12-29T21:20:17.250Z,1.30
2018-12-29T21:22:42.134Z,1.30
2018-12-29T21:25:10.316Z,1.30
2018-12-29T21:27:38.116Z,1.30
2018-12-29T21:30:06.806Z,1.20
2018-12-29T21:32:34.405Z,1.20
2018-12-29T21:35:21.784Z,1.20
2018-12-29T21:37:49.456Z,1.20
2018-12-29T21:40:16.844Z,1.30
2018-12-29T21:42:44.406Z,1.30
2018-12-29T21:45:12.014Z,1.30
2018-12-29T21:47:40.016Z,1.30
2018-12-29T21:50:07.541Z,1.30
2018-12-29T21:52:35.414Z,1.30
2018-12-29T21:55:03.146Z,1.40
2018-12-29T21:57:30.915Z,1.40
2018-12-29T21:59:58.546Z,1.40
2018-12-29T22:02:26.175Z,1.40
2018-12-29T22:04:53.646Z,1.40
2018-12-29T22:07:21.057Z,1.40
2018-12-29T22:09:48.262Z,1.40
2018-12-29T22:12:16.356Z,1.40
2018-12-29T22:14:44.478Z,1.40
2018-12-29T22:17:12.227Z,1.40
2018-12-29T22:19:39.796Z,1.40
2018-12-29T22:22:08.046Z,1.40
2018-12-29T22:24:35.596Z,1.40
2018-12-29T22:27:03.116Z,1.40
2018-12-29T22:29:30.779Z,1.40
2018-12-29T22:31:58.387Z,1.50
2018-12-29T22:34:25.748Z,1.50
2018-12-29T22:36:53.697Z,1.50
2018-12-29T22:39:21.187Z,1.60
2018-12-29T22:41:48.750Z,1.60
2018-12-29T22:44:16.155Z,1.60
2018-12-29T22:46:43.683Z,1.60
2018-12-29T22:49:30.957Z,1.50
2018-12-29T22:51:58.936Z,1.50
2018-12-29T22:54:26.496Z,1.50
2018-12-29T22:56:53.918Z,1.50
2018-12-29T22:59:21.536Z,1.50
2018-12-29T23:01:49.077Z,1.50
2018-12-29T23:04:16.657Z,1.50
2018-12-29T23:06:44.339Z,1.60
2018-12-29T23:09:12.106Z,1.50
2018-12-29T23:11:39.755Z,1.50
2018-12-29T23:14:07.936Z,1.60
2018-12-29T23:16:35.608Z,1.50
2018-12-29T23:19:03.176Z,1.50
2018-12-29T23:21:30.547Z,1.50
2018-12-29T23:24:00.035Z,1.50
2018-12-29T23:26:27.778Z,1.50
2018-12-29T23:28:55.506Z,1.50
2018-12-29T23:31:23.225Z,1.50
2018-12-29T23:33:50.987Z,1.50
2018-12-29T23:36:18.745Z,1.50
2018-12-29T23:38:46.370Z,1.50
2018-12-29T23:41:13.858Z,1.50
2018-12-29T23:43:41.916Z,1.50
2018-12-29T23:46:09.778Z,1.50
2018-12-29T23:48:37.158Z,1.50
2018-12-29T23:51:05.544Z,1.50
2018-12-29T23:53:33.617Z,1.50
2018-12-29T23:56:01.829Z,1.50
2018-12-29T23:58:29.248Z,1.60
